createdAt,value
2022-10-12T00:01:32.793Z,3.40
2022-10-12T00:03:05.922Z,3.40
2022-10-12T00:04:38.969Z,3.40
2022-10-12T00:06:14.537Z,3.40
2022-10-12T00:07:47.628Z,3.50
2022-10-12T00:09:20.726Z,3.50
2022-10-12T00:10:53.873Z,3.50
2022-10-12T00:12:27.045Z,3.60
2022-10-12T00:14:00.864Z,3.60
2022-10-12T00:15:37.905Z,3.60
2022-10-12T00:17:11.041Z,3.60
2022-10-12T00:18:44.239Z,3.60
2022-10-12T00:20:17.520Z,3.60
2022-10-12T00:21:50.571Z,3.60
2022-10-12T00:23:23.673Z,3.50
2022-10-12T00:24:56.696Z,3.40
2022-10-12T00:26:30.515Z,3.40
2022-10-12T00:28:02.596Z,3.30
2022-10-12T00:29:35.859Z,3.30
2022-10-12T00:31:11.946Z,3.20
2022-10-12T00:32:45.015Z,3.20
2022-10-12T00:34:18.119Z,3.20
2022-10-12T00:35:53.040Z,3.10
2022-10-12T00:39:00.681Z,2.90
2022-10-12T00:40:32.744Z,2.90
2022-10-12T00:42:06.000Z,2.90
2022-10-12T00:43:41.677Z,2.90
2022-10-12T00:45:14.828Z,2.90
2022-10-12T00:46:49.224Z,2.90
2022-10-12T00:48:23.648Z,2.90
2022-10-12T00:50:03.022Z,2.90
2022-10-12T00:51:36.158Z,2.80
2022-10-12T00:53:14.188Z,2.90
2022-10-12T00:54:48.688Z,2.90
2022-10-12T00:56:24.769Z,3.00
2022-10-12T00:57:58.820Z,3.00
2022-10-12T00:59:35.187Z,3.10
2022-10-12T01:01:09.139Z,3.10
2022-10-12T01:02:44.717Z,3.10
2022-10-12T01:04:16.921Z,3.00
2022-10-12T01:05:50.179Z,3.00
2022-10-12T01:07:22.569Z,2.90
2022-10-12T01:08:57.078Z,2.90
2022-10-12T01:10:30.311Z,2.90
2022-10-12T01:12:05.168Z,2.90
2022-10-12T01:13:38.438Z,2.90
2022-10-12T01:15:13.065Z,2.90
2022-10-12T01:16:56.001Z,2.90
2022-10-12T01:18:34.906Z,2.90
2022-10-12T01:20:34.557Z,3.00
2022-10-12T01:22:10.599Z,3.00
2022-10-12T01:24:27.510Z,3.10
2022-10-12T01:26:24.237Z,3.10
2022-10-12T01:28:05.622Z,3.10
2022-10-12T01:30:13.063Z,3.20
2022-10-12T01:31:52.370Z,3.20
2022-10-12T01:33:31.493Z,3.30
2022-10-12T01:35:08.316Z,3.30
2022-10-12T01:36:46.436Z,3.30
2022-10-12T01:38:28.994Z,3.20
2022-10-12T01:40:06.128Z,3.20
2022-10-12T01:41:42.932Z,3.20
2022-10-12T01:43:17.735Z,3.10
2022-10-12T01:44:50.817Z,3.10
2022-10-12T01:46:43.938Z,3.10
2022-10-12T01:48:18.020Z,3.10
2022-10-12T01:49:51.245Z,3.10
2022-10-12T01:51:30.640Z,3.10
2022-10-12T01:53:11.364Z,3.10
2022-10-12T01:54:55.393Z,3.10
2022-10-12T01:56:32.926Z,3.10
2022-10-12T01:58:21.036Z,3.00
2022-10-12T02:00:02.916Z,2.90
2022-10-12T02:01:44.112Z,2.80
2022-10-12T02:03:22.013Z,2.80
2022-10-12T02:05:01.284Z,2.80
2022-10-12T02:06:40.470Z,2.80
2022-10-12T02:08:20.439Z,2.80
2022-10-12T02:09:57.053Z,2.80
2022-10-12T02:11:30.447Z,2.80
2022-10-12T02:13:05.702Z,2.90
2022-10-12T02:14:43.278Z,3.00
2022-10-12T02:16:20.112Z,3.00
2022-10-12T02:17:54.817Z,3.00
2022-10-12T02:19:30.938Z,3.00
2022-10-12T02:21:04.357Z,3.00
2022-10-12T02:22:39.330Z,3.00
2022-10-12T02:24:14.426Z,3.00
2022-10-12T02:25:47.346Z,3.10
2022-10-12T02:27:22.199Z,3.10
2022-10-12T02:28:55.750Z,3.10
2022-10-12T02:30:29.299Z,3.10
2022-10-12T02:32:08.524Z,3.00
2022-10-12T02:33:48.726Z,3.00
2022-10-12T02:35:28.254Z,2.90
2022-10-12T02:37:07.723Z,2.90
2022-10-12T02:38:44.884Z,2.80
2022-10-12T02:40:22.730Z,2.80
2022-10-12T02:42:00.775Z,2.80
2022-10-12T02:43:38.571Z,2.70
2022-10-12T02:45:13.535Z,2.60
2022-10-12T02:46:48.330Z,2.70
2022-10-12T02:48:24.204Z,2.60
2022-10-12T02:50:01.130Z,2.60
2022-10-12T02:51:36.316Z,2.60
2022-10-12T02:53:09.981Z,2.70
2022-10-12T02:54:43.220Z,2.70
2022-10-12T02:56:17.294Z,2.60
2022-10-12T02:57:50.394Z,2.60
2022-10-12T02:59:23.839Z,2.60
2022-10-12T03:00:56.960Z,2.50
2022-10-12T03:02:30.026Z,2.50
2022-10-12T03:04:04.406Z,2.40
2022-10-12T03:05:38.967Z,2.30
2022-10-12T03:07:12.207Z,2.30
2022-10-12T03:08:45.288Z,2.30
2022-10-12T03:10:18.350Z,2.20
2022-10-12T03:11:50.518Z,2.20
2022-10-12T03:13:23.604Z,2.20
2022-10-12T03:14:56.662Z,2.20
2022-10-12T03:16:29.748Z,2.10
2022-10-12T03:18:02.874Z,2.10
2022-10-12T03:19:35.971Z,2.00
2022-10-12T03:21:10.887Z,1.90
2022-10-12T03:22:43.934Z,1.90
2022-10-12T03:24:17.136Z,1.90
2022-10-12T03:25:50.273Z,1.80
2022-10-12T03:27:23.333Z,1.90
2022-10-12T03:28:56.550Z,1.90
2022-10-12T03:30:29.647Z,1.90
2022-10-12T03:32:02.765Z,1.80
2022-10-12T03:33:35.829Z,1.90
2022-10-12T03:35:09.747Z,1.90
2022-10-12T03:36:44.191Z,1.80
2022-10-12T03:38:18.440Z,1.80
2022-10-12T03:39:51.499Z,1.90
2022-10-12T03:41:24.601Z,1.90
2022-10-12T03:42:57.704Z,1.90
2022-10-12T03:44:30.777Z,1.90
2022-10-12T03:46:03.917Z,1.90
2022-10-12T03:47:38.059Z,1.90
2022-10-12T03:49:11.389Z,1.80
2022-10-12T03:50:48.921Z,1.80
2022-10-12T03:52:23.364Z,1.80
2022-10-12T03:53:55.480Z,1.80
2022-10-12T03:55:28.573Z,1.90
2022-10-12T03:57:01.618Z,2.00
2022-10-12T03:58:34.716Z,1.90
2022-10-12T04:00:09.002Z,1.90
2022-10-12T04:01:44.990Z,1.80
2022-10-12T04:03:18.142Z,1.80
2022-10-12T04:04:51.195Z,1.80
2022-10-12T04:06:24.259Z,1.70
2022-10-12T04:07:59.149Z,1.70
2022-10-12T04:09:32.221Z,1.70
2022-10-12T04:11:05.352Z,1.70
2022-10-12T04:12:38.411Z,1.70
2022-10-12T04:14:11.465Z,1.60
2022-10-12T04:15:44.556Z,1.60
2022-10-12T04:17:17.963Z,1.60
2022-10-12T04:18:51.045Z,1.60
2022-10-12T04:20:24.103Z,1.60
2022-10-12T04:21:57.245Z,1.60
2022-10-12T04:23:31.666Z,1.50
2022-10-12T04:25:05.003Z,1.70
2022-10-12T04:26:38.020Z,1.70
2022-10-12T04:28:11.185Z,1.70
2022-10-12T04:29:44.272Z,1.80
2022-10-12T04:31:17.366Z,1.80
2022-10-12T04:32:50.372Z,1.80
2022-10-12T04:34:22.528Z,1.90
2022-10-12T04:35:55.597Z,1.90
2022-10-12T04:37:28.888Z,2.00
2022-10-12T04:39:03.340Z,2.10
2022-10-12T04:40:36.385Z,2.20
2022-10-12T04:42:09.917Z,2.40
2022-10-12T04:43:43.080Z,2.40
2022-10-12T04:45:16.311Z,2.50
2022-10-12T04:46:49.602Z,2.50
2022-10-12T04:48:23.042Z,2.50
2022-10-12T04:49:56.253Z,2.40
2022-10-12T04:51:29.327Z,2.40
2022-10-12T04:53:01.433Z,2.40
2022-10-12T04:54:35.869Z,2.40
2022-10-12T04:56:09.643Z,2.40
2022-10-12T04:57:42.705Z,2.40
2022-10-12T04:59:15.864Z,2.40
2022-10-12T05:00:49.631Z,2.50
2022-10-12T05:02:22.727Z,2.50
2022-10-12T05:03:55.803Z,2.40
2022-10-12T05:05:28.861Z,2.30
2022-10-12T05:07:01.920Z,2.30
2022-10-12T05:08:34.994Z,2.20
2022-10-12T05:10:10.421Z,2.10
2022-10-12T05:11:43.460Z,2.10
2022-10-12T05:13:16.564Z,2.10
2022-10-12T05:14:49.626Z,2.10
2022-10-12T05:16:23.080Z,2.10
2022-10-12T05:17:56.368Z,2.20
2022-10-12T05:19:29.449Z,2.20
2022-10-12T05:21:02.478Z,2.20
2022-10-12T05:22:35.513Z,2.30
2022-10-12T05:24:09.211Z,2.20
2022-10-12T05:25:43.694Z,2.10
2022-10-12T05:27:16.810Z,2.10
2022-10-12T05:28:49.890Z,2.10
2022-10-12T05:30:23.008Z,2.10
2022-10-12T05:31:56.093Z,2.00
2022-10-12T05:33:29.141Z,2.10
2022-10-12T05:35:01.334Z,2.10
2022-10-12T05:36:34.391Z,2.10
2022-10-12T05:38:07.446Z,2.20
2022-10-12T05:39:40.498Z,2.10
2022-10-12T05:41:14.921Z,2.30
2022-10-12T05:42:47.941Z,2.40
2022-10-12T05:44:21.791Z,2.50
2022-10-12T05:45:54.845Z,2.50
2022-10-12T05:47:27.957Z,2.70
2022-10-12T05:49:01.121Z,2.70
2022-10-12T05:50:34.310Z,2.80
2022-10-12T05:52:07.405Z,2.90
2022-10-12T05:53:40.570Z,2.90
2022-10-12T05:55:13.704Z,3.10
2022-10-12T05:56:48.414Z,3.10
2022-10-12T05:58:21.480Z,3.20
2022-10-12T05:59:54.604Z,3.50
2022-10-12T06:01:27.762Z,3.80
2022-10-12T06:03:00.875Z,4.30
2022-10-12T06:04:33.937Z,4.70
2022-10-12T06:06:08.347Z,5.10
2022-10-12T06:07:41.413Z,5.60
2022-10-12T06:09:14.555Z,6.00
2022-10-12T06:10:50.799Z,6.40
2022-10-12T06:12:26.473Z,6.80
2022-10-12T06:13:59.526Z,7.20
2022-10-12T06:15:32.590Z,7.50
2022-10-12T06:17:05.665Z,7.60
2022-10-12T06:18:38.774Z,7.90
2022-10-12T06:20:12.776Z,8.30
2022-10-12T06:21:45.869Z,8.40
2022-10-12T06:23:19.502Z,8.60
2022-10-12T06:24:52.572Z,9.10
2022-10-12T06:26:25.905Z,9.40
2022-10-12T06:28:00.353Z,9.60
2022-10-12T06:29:33.761Z,9.80
2022-10-12T06:31:07.154Z,9.50
2022-10-12T06:32:40.663Z,8.80
2022-10-12T06:34:13.940Z,8.40
2022-10-12T06:35:47.020Z,8.00
2022-10-12T06:37:44.422Z,7.70
2022-10-12T06:39:13.623Z,7.40
2022-10-12T06:40:46.867Z,7.40
2022-10-12T06:42:19.915Z,7.50
2022-10-12T06:43:57.175Z,7.60
2022-10-12T06:45:30.476Z,7.60
2022-10-12T06:47:03.627Z,7.70
2022-10-12T06:48:36.660Z,7.80
2022-10-12T06:50:10.013Z,8.00
2022-10-12T06:51:43.052Z,8.00
2022-10-12T06:53:16.356Z,8.30
2022-10-12T06:54:49.384Z,8.60
2022-10-12T06:56:22.796Z,8.90
2022-10-12T06:57:56.796Z,9.20
2022-10-12T06:59:31.252Z,9.40
2022-10-12T07:01:04.001Z,9.40
2022-10-12T07:02:37.440Z,9.20
2022-10-12T07:04:10.907Z,9.00
2022-10-12T07:05:43.972Z,8.90
2022-10-12T07:07:17.082Z,8.90
2022-10-12T07:08:50.262Z,9.00
2022-10-12T07:10:23.317Z,9.00
2022-10-12T07:11:56.848Z,9.10
2022-10-12T07:13:30.241Z,9.60
2022-10-12T07:15:05.118Z,10.50
2022-10-12T07:16:38.177Z,11.20
2022-10-12T07:18:11.249Z,12.00
2022-10-12T07:19:44.302Z,12.50
2022-10-12T07:21:17.696Z,13.30
2022-10-12T07:22:50.724Z,13.40
2022-10-12T07:24:23.773Z,13.50
2022-10-12T07:25:56.997Z,13.70
2022-10-12T07:27:30.067Z,13.30
2022-10-12T07:29:03.363Z,13.10
2022-10-12T07:30:38.622Z,12.60
2022-10-12T07:32:11.722Z,12.10
2022-10-12T07:33:44.892Z,12.10
2022-10-12T07:35:18.074Z,12.00
2022-10-12T07:36:59.252Z,11.90
2022-10-12T07:38:33.242Z,11.80
2022-10-12T07:40:07.436Z,11.50
2022-10-12T07:41:40.495Z,11.70
2022-10-12T07:43:15.993Z,11.70
2022-10-12T07:44:49.488Z,11.70
2022-10-12T07:46:25.245Z,11.60
2022-10-12T07:47:58.297Z,11.50
2022-10-12T07:49:31.355Z,11.50
2022-10-12T07:51:05.692Z,11.60
2022-10-12T07:52:38.757Z,11.70
2022-10-12T07:54:14.326Z,11.80
2022-10-12T07:55:50.107Z,11.90
2022-10-12T07:57:23.202Z,11.50
2022-10-12T07:58:57.984Z,12.10
2022-10-12T08:00:32.105Z,12.40
2022-10-12T08:02:06.807Z,12.80
2022-10-12T08:03:39.914Z,13.00
2022-10-12T08:05:13.206Z,13.20
2022-10-12T08:06:46.704Z,13.30
2022-10-12T08:08:19.813Z,13.50
2022-10-12T08:09:53.005Z,13.90
2022-10-12T08:11:26.294Z,14.00
2022-10-12T08:12:59.358Z,14.20
2022-10-12T08:14:32.441Z,14.00
2022-10-12T08:16:07.189Z,14.60
2022-10-12T08:17:41.805Z,14.60
2022-10-12T08:19:15.511Z,14.90
2022-10-12T08:20:48.788Z,15.10
2022-10-12T08:22:22.012Z,15.30
2022-10-12T08:23:55.169Z,15.40
2022-10-12T08:25:28.211Z,15.50
2022-10-12T08:27:01.767Z,15.60
2022-10-12T08:28:36.981Z,16.00
2022-10-12T08:30:11.309Z,16.00
2022-10-12T08:31:44.381Z,16.30
2022-10-12T08:33:20.034Z,16.60
2022-10-12T08:34:53.048Z,16.50
2022-10-12T08:36:27.422Z,16.20
2022-10-12T08:38:00.470Z,16.20
2022-10-12T08:39:33.856Z,16.00
2022-10-12T08:41:24.293Z,16.30
2022-10-12T08:43:03.525Z,16.40
2022-10-12T08:44:57.627Z,16.60
2022-10-12T08:46:31.562Z,16.80
2022-10-12T08:48:10.916Z,17.20
2022-10-12T08:49:49.871Z,17.90
2022-10-12T08:51:27.139Z,18.50
2022-10-12T08:53:06.012Z,18.40
2022-10-12T08:54:44.192Z,19.00
2022-10-12T08:56:18.284Z,18.90
2022-10-12T08:57:51.436Z,19.00
2022-10-12T08:59:34.554Z,19.10
2022-10-12T09:01:19.633Z,19.10
2022-10-12T09:03:04.083Z,19.30
2022-10-12T09:04:54.624Z,19.70
2022-10-12T09:06:31.358Z,19.60
2022-10-12T09:08:08.179Z,19.20
2022-10-12T09:09:52.869Z,19.30
2022-10-12T09:11:44.937Z,19.20
2022-10-12T09:13:32.881Z,19.40
2022-10-12T09:15:13.058Z,19.50
2022-10-12T09:16:49.379Z,19.80
2022-10-12T09:18:29.019Z,19.90
2022-10-12T09:20:08.786Z,19.80
2022-10-12T09:21:44.733Z,19.80
2022-10-12T09:23:28.655Z,19.90
2022-10-12T09:25:04.503Z,20.10
2022-10-12T09:26:39.943Z,20.00
2022-10-12T09:28:18.276Z,19.80
2022-10-12T09:29:56.161Z,20.00
2022-10-12T09:31:44.415Z,20.00
2022-10-12T09:33:25.091Z,20.10
2022-10-12T09:34:59.361Z,20.40
2022-10-12T09:36:36.644Z,20.20
2022-10-12T09:38:11.473Z,20.10
2022-10-12T09:39:44.763Z,20.20
2022-10-12T09:41:22.525Z,20.30
2022-10-12T09:42:56.907Z,20.80
2022-10-12T09:44:36.140Z,21.20
2022-10-12T09:46:16.040Z,21.60
2022-10-12T09:48:12.306Z,21.60
2022-10-12T09:49:47.539Z,21.60
2022-10-12T09:51:21.027Z,21.90
2022-10-12T09:52:55.553Z,21.90
2022-10-12T09:54:29.174Z,22.10
2022-10-12T09:56:06.038Z,22.00
2022-10-12T09:57:42.313Z,22.30
2022-10-12T09:59:26.049Z,22.30
2022-10-12T10:01:23.238Z,22.40
2022-10-12T10:02:57.252Z,22.60
2022-10-12T10:04:30.755Z,22.40
2022-10-12T10:06:05.007Z,22.90
2022-10-12T10:07:38.128Z,22.90
2022-10-12T10:09:36.493Z,22.80
2022-10-12T10:11:16.803Z,23.00
2022-10-12T10:12:52.925Z,23.20
2022-10-12T10:14:26.323Z,22.90
2022-10-12T10:16:05.928Z,22.60
2022-10-12T10:17:39.981Z,22.60
2022-10-12T10:19:19.905Z,22.40
2022-10-12T10:20:54.833Z,22.40
2022-10-12T10:22:28.560Z,22.70
2022-10-12T10:24:03.330Z,22.80
2022-10-12T10:25:38.065Z,23.10
2022-10-12T10:27:30.106Z,23.00
2022-10-12T10:29:23.144Z,23.30
2022-10-12T10:31:02.770Z,23.60
2022-10-12T10:32:36.089Z,23.20
2022-10-12T10:34:14.896Z,22.60
2022-10-12T10:35:57.792Z,23.10
2022-10-12T10:37:32.076Z,23.20
2022-10-12T10:39:08.588Z,22.80
2022-10-12T10:40:43.068Z,22.70
2022-10-12T10:42:21.513Z,22.60
2022-10-12T10:43:55.073Z,22.60
2022-10-12T10:45:30.374Z,22.70
2022-10-12T10:47:09.160Z,22.60
2022-10-12T10:48:53.378Z,22.70
2022-10-12T10:50:31.049Z,23.00
2022-10-12T10:52:05.471Z,22.70
2022-10-12T10:53:46.253Z,22.90
2022-10-12T10:55:22.067Z,22.70
2022-10-12T10:57:01.164Z,22.90
2022-10-12T10:58:37.918Z,22.80
2022-10-12T11:02:27.818Z,23.60
2022-10-12T11:04:04.280Z,23.70
2022-10-12T11:05:42.065Z,23.80
2022-10-12T11:07:22.505Z,24.00
2022-10-12T11:09:03.795Z,24.30
2022-10-12T11:10:42.818Z,24.30
2022-10-12T11:12:20.669Z,24.00
2022-10-12T11:13:59.236Z,24.30
2022-10-12T11:15:38.460Z,24.30
2022-10-12T11:17:20.222Z,24.50
2022-10-12T11:18:56.501Z,23.70
2022-10-12T11:20:41.202Z,23.30
2022-10-12T11:22:19.764Z,24.00
2022-10-12T11:23:58.122Z,24.10
2022-10-12T11:25:34.650Z,23.90
2022-10-12T11:27:14.637Z,23.80
2022-10-12T11:28:49.131Z,23.80
2022-10-12T11:30:25.114Z,23.80
2022-10-12T11:32:04.070Z,23.80
2022-10-12T11:33:40.036Z,23.70
2022-10-12T11:35:17.386Z,23.80
2022-10-12T11:37:18.658Z,23.00
2022-10-12T11:38:53.388Z,23.40
2022-10-12T11:40:55.610Z,23.10
2022-10-12T11:42:30.189Z,23.20
2022-10-12T11:44:08.794Z,23.20
2022-10-12T11:45:47.103Z,23.20
2022-10-12T11:47:36.694Z,23.30
2022-10-12T11:49:16.883Z,23.10
2022-10-12T11:50:51.631Z,23.10
2022-10-12T11:52:29.018Z,22.90
2022-10-12T11:54:07.822Z,22.70
2022-10-12T11:55:56.829Z,23.00
2022-10-12T11:57:34.973Z,23.50
2022-10-12T11:59:18.226Z,23.40
2022-10-12T12:01:09.205Z,23.10
2022-10-12T12:02:45.481Z,23.10
2022-10-12T12:06:50.330Z,22.70
2022-10-12T12:08:24.835Z,22.70
2022-10-12T12:09:58.091Z,22.70
2022-10-12T12:11:33.161Z,22.30
2022-10-12T12:13:19.214Z,22.40
2022-10-12T12:15:22.769Z,22.40
2022-10-12T12:17:15.253Z,22.80
2022-10-12T12:19:40.172Z,23.10
2022-10-12T12:21:13.570Z,23.30
2022-10-12T12:22:52.067Z,22.80
2022-10-12T12:24:25.210Z,23.30
2022-10-12T12:26:11.806Z,23.30
2022-10-12T12:27:52.322Z,23.50
2022-10-12T12:29:29.793Z,23.70
2022-10-12T12:31:06.924Z,23.50
2022-10-12T12:32:47.912Z,23.30
2022-10-12T12:34:21.070Z,23.40
2022-10-12T12:35:57.595Z,23.20
2022-10-12T12:37:35.187Z,23.00
2022-10-12T12:39:21.364Z,22.60
2022-10-12T12:41:07.553Z,22.60
2022-10-12T12:42:40.583Z,22.90
2022-10-12T12:44:37.680Z,22.60
2022-10-12T12:46:12.457Z,22.40
2022-10-12T12:47:46.503Z,22.40
2022-10-12T12:49:30.736Z,22.20
2022-10-12T12:51:05.379Z,22.30
2022-10-12T12:52:40.866Z,22.50
2022-10-12T12:54:18.993Z,22.70
2022-10-12T12:56:05.825Z,22.90
2022-10-12T12:58:00.962Z,22.70
2022-10-12T12:59:59.500Z,22.70
2022-10-12T13:02:15.935Z,22.60
2022-10-12T13:04:32.336Z,22.40
2022-10-12T13:06:44.334Z,22.30
2022-10-12T13:08:32.887Z,22.10
2022-10-12T13:10:23.636Z,21.70
2022-10-12T13:12:08.121Z,22.10
2022-10-12T13:13:56.062Z,22.10
2022-10-12T13:15:43.380Z,22.30
2022-10-12T13:17:38.074Z,22.50
2022-10-12T13:19:13.511Z,22.40
2022-10-12T13:20:49.122Z,22.60
2022-10-12T13:22:29.118Z,22.30
2022-10-12T13:24:11.758Z,22.00
2022-10-12T13:25:47.509Z,21.70
2022-10-12T13:27:24.685Z,21.70
2022-10-12T13:29:00.179Z,21.60
2022-10-12T13:30:36.980Z,21.50
2022-10-12T13:32:20.865Z,21.30
2022-10-12T13:34:01.071Z,21.30
2022-10-12T13:35:39.205Z,21.40
2022-10-12T13:37:14.347Z,21.30
2022-10-12T13:38:47.407Z,21.20
2022-10-12T13:40:31.301Z,21.10
2022-10-12T13:42:04.720Z,21.00
2022-10-12T13:43:44.974Z,20.70
2022-10-12T13:45:18.189Z,20.70
2022-10-12T13:46:54.854Z,20.70
2022-10-12T13:48:46.852Z,20.60
2022-10-12T13:50:22.727Z,20.40
2022-10-12T13:51:57.962Z,20.20
2022-10-12T13:53:38.013Z,20.20
2022-10-12T13:55:17.419Z,20.40
2022-10-12T13:56:54.495Z,20.50
2022-10-12T13:58:31.517Z,20.30
2022-10-12T14:00:11.520Z,20.50
2022-10-12T14:01:53.257Z,20.50
2022-10-12T14:03:28.209Z,20.60
2022-10-12T14:05:02.696Z,20.40
2022-10-12T14:06:38.293Z,20.40
2022-10-12T14:08:15.554Z,20.40
2022-10-12T14:09:52.713Z,20.20
2022-10-12T14:11:27.666Z,20.10
2022-10-12T14:13:02.014Z,20.10
2022-10-12T14:14:37.329Z,19.90
2022-10-12T14:16:12.335Z,19.70
2022-10-12T14:17:46.340Z,19.50
2022-10-12T14:19:21.647Z,19.60
2022-10-12T14:21:06.941Z,19.60
2022-10-12T14:22:46.280Z,19.60
2022-10-12T14:24:20.496Z,19.50
2022-10-12T14:25:55.113Z,19.40
2022-10-12T14:27:30.046Z,19.40
2022-10-12T14:29:26.899Z,19.20
2022-10-12T14:30:59.999Z,19.30
2022-10-12T14:32:42.415Z,19.20
2022-10-12T14:34:35.072Z,19.10
2022-10-12T14:36:15.385Z,18.90
2022-10-12T14:37:51.114Z,18.80
2022-10-12T14:39:24.197Z,18.70
2022-10-12T14:40:57.419Z,18.80
2022-10-12T14:42:35.642Z,18.90
2022-10-12T14:44:13.105Z,18.90
2022-10-12T14:45:46.521Z,18.90
2022-10-12T14:47:23.125Z,18.80
2022-10-12T14:48:56.215Z,18.60
2022-10-12T14:50:31.591Z,18.50
2022-10-12T14:52:04.796Z,18.50
2022-10-12T14:53:39.319Z,18.40
2022-10-12T14:55:16.708Z,18.20
2022-10-12T14:56:49.886Z,18.10
2022-10-12T14:58:22.906Z,18.10
2022-10-12T14:59:56.552Z,18.00
2022-10-12T15:01:29.733Z,17.90
2022-10-12T15:03:03.624Z,17.80
2022-10-12T15:04:36.657Z,17.80
2022-10-12T15:06:13.196Z,17.70
2022-10-12T15:07:46.896Z,17.60
2022-10-12T15:09:21.350Z,17.50
2022-10-12T15:10:54.440Z,17.40
2022-10-12T15:12:30.410Z,17.30
2022-10-12T15:14:03.456Z,17.20
2022-10-12T15:15:42.207Z,17.10
2022-10-12T15:17:16.946Z,17.00
2022-10-12T15:18:50.504Z,16.90
2022-10-12T15:20:23.575Z,16.70
2022-10-12T15:21:56.658Z,16.60
2022-10-12T15:23:29.697Z,16.60
2022-10-12T15:25:17.839Z,16.40
2022-10-12T15:26:50.903Z,16.30
2022-10-12T15:28:24.493Z,16.10
2022-10-12T15:29:57.673Z,15.80
2022-10-12T15:31:30.786Z,15.70
2022-10-12T15:33:03.904Z,15.50
2022-10-12T15:34:37.069Z,15.30
2022-10-12T15:36:10.543Z,15.10
2022-10-12T15:37:43.623Z,14.90
2022-10-12T15:39:17.097Z,14.70
2022-10-12T15:40:52.817Z,14.60
2022-10-12T15:42:25.963Z,14.50
2022-10-12T15:43:59.261Z,14.40
2022-10-12T15:45:34.839Z,14.20
2022-10-12T15:47:07.975Z,14.10
2022-10-12T15:48:41.757Z,13.90
2022-10-12T15:50:15.754Z,13.80
2022-10-12T15:51:50.715Z,13.60
2022-10-12T15:53:25.561Z,13.50
2022-10-12T15:54:58.639Z,13.30
2022-10-12T15:56:33.324Z,13.20
2022-10-12T15:58:06.360Z,13.10
2022-10-12T15:59:39.422Z,13.00
2022-10-12T16:01:14.205Z,12.90
2022-10-12T16:02:47.797Z,12.80
2022-10-12T16:04:21.239Z,12.70
2022-10-12T16:05:54.889Z,12.60
2022-10-12T16:07:28.018Z,12.50
2022-10-12T16:09:01.171Z,12.40
2022-10-12T16:10:36.827Z,12.40
2022-10-12T16:12:11.474Z,12.30
2022-10-12T16:13:51.082Z,12.20
2022-10-12T16:15:29.852Z,12.10
2022-10-12T16:17:04.846Z,12.00
2022-10-12T16:18:37.957Z,11.80
2022-10-12T16:20:12.513Z,11.70
2022-10-12T16:21:45.569Z,11.60
2022-10-12T16:23:21.689Z,11.50
2022-10-12T16:24:54.935Z,11.40
2022-10-12T16:26:28.026Z,11.40
2022-10-12T16:28:02.651Z,11.40
2022-10-12T16:29:37.211Z,11.30
2022-10-12T16:31:15.764Z,11.20
2022-10-12T16:32:49.161Z,11.20
2022-10-12T16:34:22.232Z,11.10
2022-10-12T16:35:55.349Z,11.00
2022-10-12T16:37:28.708Z,11.00
2022-10-12T16:39:01.756Z,11.00
2022-10-12T16:40:34.812Z,10.90
2022-10-12T16:42:07.883Z,10.80
2022-10-12T16:43:42.677Z,10.70
2022-10-12T16:45:15.755Z,10.60
2022-10-12T16:46:48.867Z,10.70
2022-10-12T16:48:21.901Z,10.60
2022-10-12T16:49:55.734Z,10.60
2022-10-12T16:51:28.759Z,10.60
2022-10-12T16:53:01.858Z,10.50
2022-10-12T16:54:35.101Z,10.50
2022-10-12T16:56:08.406Z,10.40
2022-10-12T16:57:41.794Z,10.40
2022-10-12T16:59:16.216Z,10.30
2022-10-12T17:00:49.344Z,10.30
2022-10-12T17:02:22.475Z,10.40
2022-10-12T17:03:55.604Z,10.30
2022-10-12T17:05:28.703Z,10.20
2022-10-12T17:07:01.746Z,10.20
2022-10-12T17:08:38.827Z,10.10
2022-10-12T17:10:11.862Z,10.10
2022-10-12T17:11:44.932Z,10.10
2022-10-12T17:13:17.986Z,10.00
2022-10-12T17:14:52.988Z,10.00
2022-10-12T17:16:43.586Z,9.90
2022-10-12T17:18:16.694Z,9.90
2022-10-12T17:19:49.806Z,9.90
2022-10-12T17:21:22.890Z,9.80
2022-10-12T17:22:56.005Z,9.90
2022-10-12T17:24:31.540Z,9.90
2022-10-12T17:26:04.584Z,9.90
2022-10-12T17:27:37.844Z,10.00
2022-10-12T17:29:13.354Z,10.00
2022-10-12T17:30:47.772Z,10.00
2022-10-12T17:32:20.851Z,9.90
2022-10-12T17:33:54.225Z,10.00
2022-10-12T17:35:27.273Z,9.90
2022-10-12T17:37:01.690Z,9.80
2022-10-12T17:38:35.837Z,9.80
2022-10-12T17:40:10.649Z,9.70
2022-10-12T17:41:43.817Z,9.60
2022-10-12T17:43:17.384Z,9.60
2022-10-12T17:44:51.752Z,9.50
2022-10-12T17:46:26.197Z,9.40
2022-10-12T17:47:59.256Z,9.40
2022-10-12T17:49:32.583Z,9.30
2022-10-12T17:51:09.520Z,9.30
2022-10-12T17:52:42.649Z,9.20
2022-10-12T17:54:15.814Z,9.20
2022-10-12T17:55:49.296Z,9.20
2022-10-12T17:57:22.426Z,9.10
2022-10-12T17:58:56.885Z,9.10
2022-10-12T18:00:29.992Z,9.10
2022-10-12T18:02:09.213Z,9.10
2022-10-12T18:03:44.577Z,9.10
2022-10-12T18:05:18.482Z,9.10
2022-10-12T18:06:51.521Z,9.10
2022-10-12T18:08:24.612Z,9.20
2022-10-12T18:11:32.048Z,9.20
2022-10-12T18:13:05.072Z,9.30
2022-10-12T18:14:38.142Z,9.30
2022-10-12T18:16:12.125Z,9.30
2022-10-12T18:17:46.904Z,9.40
2022-10-12T18:19:19.952Z,9.30
2022-10-12T18:20:53.173Z,9.30
2022-10-12T18:22:26.272Z,9.30
2022-10-12T18:23:59.392Z,9.40
2022-10-12T18:25:32.473Z,9.40
2022-10-12T18:27:05.789Z,9.40
2022-10-12T18:28:40.127Z,9.40
2022-10-12T18:30:13.962Z,9.40
2022-10-12T18:31:47.081Z,9.30
2022-10-12T18:33:21.913Z,9.20
2022-10-12T18:34:55.081Z,9.20
2022-10-12T18:36:28.700Z,9.20
2022-10-12T18:38:01.788Z,9.20
2022-10-12T18:39:35.111Z,9.20
2022-10-12T18:41:10.033Z,9.20
2022-10-12T18:42:43.142Z,9.20
2022-10-12T18:44:16.212Z,9.20
2022-10-12T18:45:49.261Z,9.20
2022-10-12T18:47:24.535Z,9.10
2022-10-12T18:48:59.523Z,9.10
2022-10-12T18:50:32.585Z,9.00
2022-10-12T18:52:05.722Z,8.90
2022-10-12T18:53:38.766Z,8.80
2022-10-12T18:55:11.980Z,8.80
2022-10-12T18:56:45.557Z,8.70
2022-10-12T18:58:18.603Z,8.60
2022-10-12T18:59:52.480Z,8.60
2022-10-12T19:01:27.212Z,8.50
2022-10-12T19:03:00.337Z,8.50
2022-10-12T19:04:35.521Z,8.40
2022-10-12T19:06:11.267Z,8.40
2022-10-12T19:07:44.306Z,8.40
2022-10-12T19:09:17.396Z,8.40
2022-10-12T19:10:50.449Z,8.40
2022-10-12T19:12:23.495Z,8.40
2022-10-12T19:13:59.076Z,8.50
2022-10-12T19:15:32.153Z,8.40
2022-10-12T19:17:05.196Z,8.40
2022-10-12T19:18:38.850Z,8.40
2022-10-12T19:20:13.664Z,8.40
2022-10-12T19:21:46.801Z,8.50
2022-10-12T19:23:19.828Z,8.40
2022-10-12T19:24:52.996Z,8.40
2022-10-12T19:26:28.085Z,8.30
2022-10-12T19:28:01.149Z,8.30
2022-10-12T19:29:34.223Z,8.20
2022-10-12T19:31:10.112Z,8.20
2022-10-12T19:32:43.171Z,8.20
2022-10-12T19:34:18.578Z,8.10
2022-10-12T19:35:53.081Z,8.00
2022-10-12T19:37:26.141Z,8.00
2022-10-12T19:39:01.785Z,7.90
2022-10-12T19:40:37.596Z,7.90
2022-10-12T19:42:10.640Z,7.90
2022-10-12T19:43:44.083Z,7.90
2022-10-12T19:45:17.303Z,7.90
2022-10-12T19:46:53.403Z,7.80
2022-10-12T19:48:26.440Z,7.90
2022-10-12T19:49:59.487Z,7.90
2022-10-12T19:51:34.203Z,7.90
2022-10-12T19:53:07.299Z,7.90
2022-10-12T19:54:40.369Z,7.90
2022-10-12T19:56:14.917Z,7.90
2022-10-12T19:57:49.023Z,7.90
2022-10-12T19:59:22.061Z,8.00
2022-10-12T20:01:01.659Z,8.00
2022-10-12T20:02:34.945Z,8.00
2022-10-12T20:04:11.819Z,8.00
2022-10-12T20:05:46.708Z,8.00
2022-10-12T20:07:21.485Z,8.00
2022-10-12T20:08:56.289Z,8.10
2022-10-12T20:10:29.412Z,8.10
2022-10-12T20:12:02.896Z,8.00
2022-10-12T20:13:36.635Z,8.00
2022-10-12T20:15:11.001Z,8.00
2022-10-12T20:16:44.110Z,8.00
2022-10-12T20:18:17.219Z,8.00
2022-10-12T20:19:50.724Z,8.10
2022-10-12T20:21:24.819Z,8.00
2022-10-12T20:22:59.297Z,8.00
2022-10-12T20:24:32.362Z,8.00
2022-10-12T20:26:07.735Z,8.00
2022-10-12T20:27:40.783Z,7.90
2022-10-12T20:29:13.812Z,7.90
2022-10-12T20:30:47.218Z,7.90
2022-10-12T20:32:20.437Z,7.80
2022-10-12T20:33:54.497Z,7.70
2022-10-12T20:35:27.563Z,7.60
2022-10-12T20:37:00.637Z,7.60
2022-10-12T20:38:35.011Z,7.40
2022-10-12T20:40:09.349Z,7.40
2022-10-12T20:41:42.670Z,7.30
2022-10-12T20:43:16.079Z,7.20
2022-10-12T20:44:49.563Z,7.10
2022-10-12T20:46:22.637Z,7.00
2022-10-12T20:47:55.676Z,6.90
2022-10-12T20:49:28.774Z,6.80
2022-10-12T20:51:05.734Z,6.70
2022-10-12T20:52:39.593Z,6.70
2022-10-12T20:54:15.997Z,6.70
2022-10-12T20:55:49.070Z,6.70
2022-10-12T20:57:22.123Z,6.70
2022-10-12T20:58:55.676Z,6.60
2022-10-12T21:00:28.688Z,6.90
2022-10-12T21:02:01.806Z,6.60
2022-10-12T21:03:35.558Z,6.80
2022-10-12T21:05:09.680Z,7.00
2022-10-12T21:06:43.133Z,6.70
2022-10-12T21:08:16.178Z,7.20